Time;durP1;ratioP1;P1;durP2;ratioP2;P2;SDS_P1;SDS_P2;PMS_P1;PMS_P2;Temp;Humidity;BMP_temperature;BMP_pressure;BME280_temperature;BME280_humidity;BME280_pressure;Samples;Min_cycle;Max_cycle;Signal;HPM_P1;HPM_P2
2021/12/04 00:00:13;;;;;;;8.50;4.43;;;2.10;99.90;;;;;;5076456;28;20115;-83
2021/12/04 00:02:39;;;;;;;5.88;4.20;;;2.20;99.90;;;;;;5094739;28;20361;-83
2021/12/04 00:05:06;;;;;;;8.65;4.85;;;2.10;99.90;;;;;;5094942;28;20084;-83
2021/12/04 00:07:34;;;;;;;7.82;4.30;;;2.10;99.90;;;;;;5075469;28;20020;-81
2021/12/04 00:10:03;;;;;;;5.50;4.22;;;2.00;99.90;;;;;;5076359;28;20419;-84
2021/12/04 00:12:33;;;;;;;8.02;4.75;;;2.20;99.90;;;;;;5076352;28;20043;-83
2021/12/04 00:14:59;;;;;;;8.52;4.72;;;2.00;99.90;;;;;;5094494;28;20445;-84
2021/12/04 00:17:25;;;;;;;6.90;4.47;;;1.90;99.90;;;;;;5094313;28;20020;-84
2021/12/04 00:19:51;;;;;;;7.35;4.47;;;2.00;99.90;;;;;;5076169;28;20039;-84
2021/12/04 00:22:17;;;;;;;11.60;4.85;;;2.20;99.90;;;;;;5076340;28;20024;-82
2021/12/04 00:24:43;;;;;;;6.65;4.07;;;2.30;99.90;;;;;;5094253;28;20024;-82
2021/12/04 00:27:08;;;;;;;7.53;4.15;;;2.20;99.90;;;;;;5094120;28;20028;-83
2021/12/04 00:29:34;;;;;;;6.00;3.78;;;2.30;99.90;;;;;;5094242;28;20027;-81
2021/12/04 00:32:28;;;;;;;8.52;3.80;;;2.20;99.90;;;;;;5094117;28;20021;-83
2021/12/04 00:34:53;;;;;;;5.60;3.30;;;2.30;99.90;;;;;;5093364;28;20035;-83
2021/12/04 00:50:56;;;;;;;6.53;3.55;;;2.60;99.90;;;;;;5093867;28;20071;-83
2021/12/04 00:53:22;;;;;;;5.50;3.50;;;2.80;99.90;;;;;;5075568;28;20024;-83
2021/12/04 00:55:48;;;;;;;6.20;4.13;;;2.80;99.90;;;;;;5075568;28;20409;-84
2021/12/04 00:58:13;;;;;;;8.82;4.57;;;2.80;99.90;;;;;;5075462;28;20031;-83
2021/12/04 01:00:41;;;;;;;5.70;4.18;;;2.90;99.90;;;;;;5075522;28;20039;-83
2021/12/04 01:03:08;;;;;;;10.32;4.70;;;2.90;99.90;;;;;;5093649;28;20153;-84
2021/12/04 01:05:34;;;;;;;6.03;3.60;;;2.80;99.90;;;;;;5093426;28;20036;-84
2021/12/04 01:08:00;;;;;;;8.27;4.32;;;2.90;99.90;;;;;;5093502;28;20387;-84
2021/12/04 01:10:26;;;;;;;7.35;4.65;;;2.70;99.90;;;;;;5075625;28;20020;-83
2021/12/04 01:12:52;;;;;;;8.20;4.25;;;2.40;99.90;;;;;;5093480;28;20020;-84
2021/12/04 01:15:18;;;;;;;6.65;4.47;;;2.40;99.90;;;;;;5075250;28;20073;-84
2021/12/04 01:17:44;;;;;;;10.00;4.70;;;2.50;99.90;;;;;;5093272;28;20016;-81
2021/12/04 01:20:10;;;;;;;7.93;5.15;;;2.50;99.90;;;;;;5075230;28;20478;-84
2021/12/04 01:22:36;;;;;;;6.18;4.45;;;2.30;99.90;;;;;;5093292;28;20047;-83
2021/12/04 01:25:03;;;;;;;6.88;4.88;;;2.40;99.90;;;;;;5075216;28;20024;-84
2021/12/04 01:27:29;;;;;;;9.32;5.20;;;2.40;99.90;;;;;;5075099;28;20085;-83
2021/12/04 01:29:54;;;;;;;9.18;5.00;;;2.30;99.90;;;;;;5093247;28;20421;-84
2021/12/04 01:32:20;;;;;;;6.90;4.15;;;2.20;99.90;;;;;;5075075;28;20020;-83
2021/12/04 01:34:46;;;;;;;8.63;5.50;;;2.30;99.90;;;;;;5075023;28;20024;-84
2021/12/04 01:37:12;;;;;;;8.57;4.40;;;2.30;99.90;;;;;;5075022;28;20031;-84
2021/12/04 01:39:37;;;;;;;9.18;5.28;;;2.20;99.90;;;;;;5071553;28;20402;-83
2021/12/04 01:42:03;;;;;;;9.60;5.88;;;2.20;99.90;;;;;;5088509;28;20032;-83
2021/12/04 01:44:29;;;;;;;10.73;6.35;;;2.10;99.90;;;;;;5088530;28;20063;-83
2021/12/04 01:46:58;;;;;;;8.18;5.65;;;2.20;99.90;;;;;;5072874;28;20099;-83
2021/12/04 01:49:24;;;;;;;8.50;5.88;;;2.20;99.90;;;;;;5088505;28;20052;-83
2021/12/04 01:51:50;;;;;;;9.90;6.60;;;2.20;99.90;;;;;;5075696;28;20095;-82
2021/12/04 01:54:16;;;;;;;9.70;6.97;;;2.20;99.90;;;;;;5092597;28;20040;-83
2021/12/04 01:56:41;;;;;;;12.13;6.50;;;2.20;99.90;;;;;;5089663;28;20111;-83
2021/12/04 01:59:09;;;;;;;8.82;6.50;;;2.30;99.90;;;;;;5073311;28;20023;-84
2021/12/04 02:01:34;;;;;;;11.45;6.97;;;2.30;99.90;;;;;;5088753;28;20048;-84
2021/12/04 02:04:00;;;;;;;11.55;6.78;;;2.30;99.90;;;;;;5088434;28;20052;-84
2021/12/04 02:06:26;;;;;;;11.13;6.88;;;2.40;99.90;;;;;;5072736;28;20082;-84
2021/12/04 02:08:52;;;;;;;12.70;7.50;;;2.40;99.90;;;;;;5088264;28;20073;-84
2021/12/04 02:11:18;;;;;;;12.73;7.13;;;2.30;99.90;;;;;;5072658;28;20537;-84
2021/12/04 02:13:43;;;;;;;11.02;7.40;;;2.30;99.90;;;;;;5072667;28;20024;-84
2021/12/04 02:16:18;;;;;;;15.13;7.55;;;2.40;99.90;;;;;;5088126;28;20028;-84
2021/12/04 02:18:44;;;;;;;15.63;7.10;;;2.40;99.90;;;;;;5088164;28;20491;-84
2021/12/04 02:21:10;;;;;;;13.38;8.40;;;2.30;99.90;;;;;;5088116;28;20048;-84
2021/12/04 02:23:36;;;;;;;13.32;8.48;;;2.00;99.90;;;;;;5072535;28;20500;-84
2021/12/04 02:26:02;;;;;;;11.95;8.38;;;2.10;99.90;;;;;;5087996;28;20021;-84
2021/12/04 02:28:28;;;;;;;13.80;8.20;;;2.00;99.90;;;;;;5072511;28;20123;-83
2021/12/04 02:30:53;;;;;;;12.90;8.25;;;2.00;99.90;;;;;;5075134;28;20048;-84
2021/12/04 02:33:21;;;;;;;14.77;8.77;;;2.00;99.90;;;;;;5091753;28;20021;-84
2021/12/04 02:35:50;;;;;;;14.75;8.30;;;1.80;99.90;;;;;;5092245;28;20028;-84
2021/12/04 02:38:17;;;;;;;12.77;8.18;;;1.80;99.90;;;;;;5084662;28;20056;-85
2021/12/04 02:40:45;;;;;;;11.98;7.13;;;2.00;99.90;;;;;;5096290;28;20049;-84
2021/12/04 02:43:12;;;;;;;14.30;8.05;;;2.00;99.90;;;;;;5077989;28;20024;-84
2021/12/04 02:45:37;;;;;;;13.27;8.13;;;2.00;99.90;;;;;;5077855;28;20028;-85
2021/12/04 02:48:04;;;;;;;13.25;8.60;;;2.00;99.90;;;;;;5077873;28;20114;-85
2021/12/04 02:50:29;;;;;;;11.82;8.27;;;2.10;99.90;;;;;;5096411;28;20069;-85
2021/12/04 02:52:55;;;;;;;12.98;8.40;;;2.10;99.90;;;;;;5077849;28;20024;-83
2021/12/04 02:55:21;;;;;;;10.68;7.32;;;2.00;99.90;;;;;;5077844;28;20502;-84
2021/12/04 02:57:47;;;;;;;12.20;8.50;;;2.00;99.90;;;;;;5077753;28;20031;-84
2021/12/04 03:00:21;;;;;;;12.40;8.07;;;1.90;99.90;;;;;;5095839;28;20085;-85
2021/12/04 03:02:47;;;;;;;13.23;8.02;;;2.00;99.90;;;;;;5077720;28;20384;-83
2021/12/04 03:05:13;;;;;;;11.48;7.05;;;2.00;99.90;;;;;;5077709;28;20028;-84
2021/12/04 03:07:40;;;;;;;12.75;7.43;;;2.00;99.90;;;;;;5077543;28;20024;-83
2021/12/04 03:10:07;;;;;;;12.48;7.40;;;2.10;99.90;;;;;;5077592;28;20490;-85
2021/12/04 03:12:35;;;;;;;10.50;6.60;;;2.10;99.90;;;;;;5095697;28;20186;-86
2021/12/04 03:15:01;;;;;;;11.63;7.20;;;2.20;99.90;;;;;;5095708;28;20020;-85
2021/12/04 03:17:27;;;;;;;11.32;6.55;;;2.20;99.90;;;;;;5077507;28;20020;-85
2021/12/04 03:19:53;;;;;;;9.02;6.25;;;2.30;99.90;;;;;;5077375;28;20113;-84
2021/12/04 03:22:22;;;;;;;8.25;5.82;;;2.20;99.90;;;;;;5095427;28;20020;-85
2021/12/04 03:24:47;;;;;;;10.25;6.28;;;2.20;99.90;;;;;;5077367;28;20027;-85
2021/12/04 03:27:16;;;;;;;10.73;6.30;;;2.20;99.90;;;;;;5077179;28;20167;-83
2021/12/04 03:29:47;;;;;;;8.38;6.25;;;2.20;99.90;;;;;;5077178;28;20024;-84
2021/12/04 03:32:49;;;;;;;8.77;6.40;;;2.10;99.90;;;;;;5077135;28;20017;-84
2021/12/04 03:40:36;;;;;;;9.52;5.97;;;2.10;99.90;;;;;;5095467;28;20115;-84
2021/12/04 03:43:08;;;;;;;8.90;5.63;;;2.10;99.90;;;;;;5076354;28;20421;-84
2021/12/04 03:45:36;;;;;;;7.70;5.38;;;2.20;99.90;;;;;;5076794;28;20118;-84
2021/12/04 03:48:12;;;;;;;7.15;5.00;;;2.20;99.90;;;;;;5076783;28;20107;-85
2021/12/04 03:50:38;;;;;;;5.97;4.60;;;2.30;99.90;;;;;;5076781;28;20077;-85
2021/12/04 03:53:04;;;;;;;6.85;5.40;;;2.30;99.90;;;;;;5076692;28;20487;-83
2021/12/04 03:55:30;;;;;;;7.40;4.88;;;2.20;99.90;;;;;;5076696;28;20044;-83
2021/12/04 03:57:56;;;;;;;6.43;4.78;;;2.20;99.90;;;;;;5095019;28;20052;-82
2021/12/04 04:00:25;;;;;;;10.43;4.95;;;2.20;99.90;;;;;;5094982;28;20361;-81
2021/12/04 04:02:51;;;;;;;5.53;4.32;;;2.20;99.90;;;;;;5095014;28;20012;-82
2021/12/04 04:05:17;;;;;;;7.30;4.38;;;2.20;99.90;;;;;;5077479;28;20035;-82
2021/12/04 04:07:42;;;;;;;6.28;4.75;;;2.20;99.90;;;;;;5096738;28;20025;-83
2021/12/04 04:10:09;;;;;;;6.05;4.65;;;2.20;99.90;;;;;;5076676;28;20020;-83
2021/12/04 04:12:34;;;;;;;6.15;4.30;;;2.20;99.90;;;;;;5076439;28;20474;-84
2021/12/04 04:15:00;;;;;;;4.97;4.03;;;2.10;99.90;;;;;;5094792;28;20093;-83
2021/12/04 04:17:30;;;;;;;6.35;4.10;;;2.20;99.90;;;;;;5094287;28;20031;-82
2021/12/04 04:19:56;;;;;;;6.13;4.25;;;2.20;99.90;;;;;;5076184;28;20451;-82
2021/12/04 04:22:22;;;;;;;5.13;4.10;;;2.20;99.90;;;;;;5094288;28;20070;-82
2021/12/04 04:24:48;;;;;;;5.97;4.22;;;2.20;99.90;;;;;;5076103;28;20046;-82
2021/12/04 04:27:13;;;;;;;6.68;4.25;;;2.20;99.90;;;;;;5094167;28;20078;-82
2021/12/04 04:29:39;;;;;;;6.88;3.80;;;2.10;99.90;;;;;;5075912;28;20073;-83
2021/12/04 04:32:05;;;;;;;4.70;3.63;;;2.20;99.90;;;;;;5075988;28;20020;-81
2021/12/04 04:34:34;;;;;;;4.65;3.47;;;2.20;99.90;;;;;;5075900;28;20016;-82
2021/12/04 04:38:07;;;;;;;5.18;3.65;;;2.20;99.90;;;;;;5094053;28;20420;-82
2021/12/04 05:13:00;;;;;;;2.67;2.47;;;2.50;99.90;;;;;;5093474;28;20023;-83
2021/12/04 05:15:56;;;;;;;3.90;2.50;;;2.50;99.90;;;;;;5076395;28;20028;-82
2021/12/04 05:21:04;;;;;;;2.58;2.28;;;2.50;99.90;;;;;;5093427;28;20039;-82
2021/12/04 05:23:35;;;;;;;2.97;2.30;;;2.60;99.90;;;;;;5093311;28;20563;-82
2021/12/04 05:26:03;;;;;;;2.40;2.13;;;2.60;99.90;;;;;;5093214;28;20067;-82
2021/12/04 05:28:29;;;;;;;3.95;1.98;;;2.60;99.90;;;;;;5075176;28;20028;-82
2021/12/04 05:30:56;;;;;;;2.28;2.05;;;2.70;99.90;;;;;;5093262;28;20031;-81
2021/12/04 05:33:22;;;;;;;4.38;2.20;;;2.60;99.90;;;;;;5075155;28;20055;-81
2021/12/04 05:35:48;;;;;;;2.00;1.80;;;2.70;99.90;;;;;;5075680;28;20031;-80
2021/12/04 05:38:15;;;;;;;4.72;1.95;;;2.70;99.90;;;;;;5074914;28;20051;-82
2021/12/04 05:40:43;;;;;;;2.17;1.98;;;2.70;99.90;;;;;;5074953;28;20028;-83
2021/12/04 05:43:09;;;;;;;3.25;1.90;;;2.80;99.90;;;;;;5075018;28;20500;-83
2021/12/04 05:45:39;;;;;;;2.33;1.70;;;2.80;99.90;;;;;;5093022;28;20099;-83
2021/12/04 05:48:11;;;;;;;3.42;1.90;;;2.80;99.90;;;;;;5074957;28;20391;-82
2021/12/04 05:53:21;;;;;;;1.98;1.75;;;2.80;99.90;;;;;;5093090;28;20042;-83
2021/12/04 05:55:54;;;;;;;1.67;1.58;;;2.80;99.90;;;;;;5074955;28;20488;-82
2021/12/04 05:58:31;;;;;;;2.10;1.70;;;2.80;99.90;;;;;;5093057;28;20498;-82
2021/12/04 06:01:00;;;;;;;1.75;1.65;;;2.80;99.90;;;;;;5074925;28;20103;-82
2021/12/04 06:03:26;;;;;;;1.75;1.65;;;2.80;99.90;;;;;;5074851;28;20048;-82
2021/12/04 06:05:52;;;;;;;2.17;1.67;;;2.90;99.90;;;;;;5077645;28;20028;-82
2021/12/04 06:08:19;;;;;;;2.10;1.90;;;2.90;99.90;;;;;;5078809;28;20111;-82
2021/12/04 06:10:46;;;;;;;2.08;1.73;;;2.90;99.90;;;;;;5096885;28;20020;-82
2021/12/04 06:13:13;;;;;;;1.90;1.70;;;2.90;99.90;;;;;;5096839;28;20026;-82
2021/12/04 06:15:39;;;;;;;1.70;1.60;;;2.90;99.90;;;;;;5096845;28;20091;-82
2021/12/04 06:18:05;;;;;;;2.13;1.90;;;3.00;99.90;;;;;;5079897;28;20024;-82
2021/12/04 06:23:15;;;;;;;2.03;1.75;;;2.90;99.90;;;;;;5100751;28;20034;-82
2021/12/04 06:25:41;;;;;;;2.00;1.80;;;3.00;99.90;;;;;;5096784;28;20024;-83
2021/12/04 06:28:07;;;;;;;3.05;1.90;;;3.00;99.90;;;;;;5078372;28;20032;-82
2021/12/04 06:30:36;;;;;;;2.15;1.80;;;3.00;99.90;;;;;;5078250;28;20024;-82
2021/12/04 06:33:04;;;;;;;5.20;1.77;;;2.90;99.90;;;;;;5096733;28;20070;-82
2021/12/04 06:35:31;;;;;;;1.90;1.67;;;3.00;99.90;;;;;;5078126;28;20020;-81
2021/12/04 06:37:57;;;;;;;1.50;1.40;;;3.10;99.90;;;;;;5074659;28;20072;-82
2021/12/04 06:40:26;;;;;;;2.03;1.45;;;3.10;99.90;;;;;;5091697;28;20036;-82
2021/12/04 06:42:53;;;;;;;1.42;1.33;;;3.10;99.90;;;;;;5076004;28;20021;-82
2021/12/04 06:45:19;;;;;;;3.72;1.42;;;3.20;99.90;;;;;;5075901;28;20044;-82
2021/12/04 06:47:54;;;;;;;1.83;1.23;;;3.20;99.90;;;;;;5091393;28;20028;-82
2021/12/04 06:50:30;;;;;;;1.40;1.30;;;3.20;99.90;;;;;;5091574;28;20028;-82
2021/12/04 06:52:59;;;;;;;1.40;1.30;;;3.20;99.90;;;;;;5091504;28;20107;-83
2021/12/04 06:55:29;;;;;;;1.88;1.30;;;3.30;99.90;;;;;;5091388;28;20502;-83
2021/12/04 06:57:55;;;;;;;1.30;1.20;;;3.30;99.90;;;;;;5091294;28;20054;-83
2021/12/04 07:00:24;;;;;;;1.50;1.40;;;3.30;99.90;;;;;;5091347;28;20428;-82
2021/12/04 07:02:50;;;;;;;2.28;1.50;;;3.30;99.90;;;;;;5091285;28;20497;-83
2021/12/04 07:05:16;;;;;;;1.90;1.40;;;3.30;99.90;;;;;;5091393;28;20166;-83
2021/12/04 07:07:41;;;;;;;1.48;1.20;;;3.30;99.90;;;;;;5091029;28;20119;-83
2021/12/04 07:10:07;;;;;;;2.00;1.60;;;3.30;99.90;;;;;;5091073;28;20357;-82
2021/12/04 07:12:33;;;;;;;1.90;1.45;;;3.30;99.90;;;;;;5091115;28;20031;-84
2021/12/04 07:15:00;;;;;;;1.88;1.67;;;3.40;99.90;;;;;;5075383;28;20097;-83
2021/12/04 07:17:25;;;;;;;1.58;1.48;;;3.40;99.90;;;;;;5090767;28;20052;-83
2021/12/04 07:19:51;;;;;;;2.85;1.67;;;3.40;99.90;;;;;;5090868;28;20365;-81
2021/12/04 07:22:17;;;;;;;1.60;1.50;;;3.40;99.90;;;;;;5090814;28;20031;-83
2021/12/04 07:24:43;;;;;;;2.17;1.45;;;3.50;99.90;;;;;;5090877;28;20056;-82
2021/12/04 07:27:08;;;;;;;1.58;1.35;;;3.50;99.90;;;;;;5075229;28;20071;-82
2021/12/04 07:29:34;;;;;;;2.00;1.63;;;3.40;99.90;;;;;;5090738;28;20028;-83
2021/12/04 07:32:00;;;;;;;2.38;1.40;;;3.40;99.90;;;;;;5075373;28;20028;-84
2021/12/04 07:34:26;;;;;;;1.73;1.50;;;3.50;99.90;;;;;;5090617;28;20050;-83
2021/12/04 07:36:51;;;;;;;2.15;1.80;;;3.50;99.90;;;;;;5090736;28;20034;-82
2021/12/04 07:39:17;;;;;;;2.30;1.70;;;3.50;99.90;;;;;;5090283;28;20139;-82
2021/12/04 07:41:43;;;;;;;3.17;1.70;;;3.50;99.90;;;;;;5090342;28;20392;-82
2021/12/04 07:44:10;;;;;;;1.55;1.45;;;3.50;99.90;;;;;;5090388;28;20024;-80
2021/12/04 07:46:38;;;;;;;3.00;1.67;;;3.60;99.90;;;;;;5090253;28;20028;-80
2021/12/04 07:49:05;;;;;;;7.43;1.88;;;3.50;99.90;;;;;;5074683;28;20020;-79
2021/12/04 07:51:31;;;;;;;3.75;1.67;;;3.60;99.90;;;;;;5090270;28;20452;-79
2021/12/04 07:53:58;;;;;;;1.65;1.42;;;3.60;99.90;;;;;;5090237;28;20078;-79
2021/12/04 07:56:23;;;;;;;2.33;1.65;;;3.60;99.90;;;;;;5074863;28;20388;-80
2021/12/04 07:58:50;;;;;;;1.55;1.45;;;3.70;99.90;;;;;;5090170;28;20111;-80
2021/12/04 08:01:16;;;;;;;1.90;1.52;;;3.60;99.90;;;;;;5074783;28;20031;-80
2021/12/04 08:03:42;;;;;;;3.47;1.40;;;3.70;99.90;;;;;;5074448;28;20028;-80
2021/12/04 08:06:07;;;;;;;1.73;1.63;;;3.70;99.90;;;;;;5074613;28;20024;-79
2021/12/04 08:08:33;;;;;;;2.95;1.65;;;3.80;99.90;;;;;;5089865;28;20031;-80
2021/12/04 08:11:00;;;;;;;2.58;2.13;;;3.70;99.90;;;;;;5089937;28;20498;-81
2021/12/04 08:13:26;;;;;;;2.88;2.58;;;3.80;99.90;;;;;;5089808;28;20074;-81
2021/12/04 08:15:51;;;;;;;6.45;4.80;;;3.80;99.90;;;;;;5089837;28;20095;-79
2021/12/04 08:18:17;;;;;;;4.22;2.92;;;3.80;99.90;;;;;;5089670;28;20123;-80
2021/12/04 08:20:45;;;;;;;4.95;2.58;;;3.70;99.90;;;;;;5074112;28;20024;-80
2021/12/04 08:23:10;;;;;;;2.70;2.42;;;3.80;99.90;;;;;;5074098;28;20474;-80
2021/12/04 08:25:37;;;;;;;5.25;3.03;;;3.80;99.90;;;;;;5089516;28;20107;-80
2021/12/04 08:28:03;;;;;;;3.55;2.55;;;3.80;99.90;;;;;;5088892;28;20020;-81
2021/12/04 08:30:33;;;;;;;2.20;2.00;;;3.90;99.90;;;;;;5089576;28;20029;-81
2021/12/04 08:32:59;;;;;;;3.00;2.05;;;3.90;99.90;;;;;;5074160;28;20107;-81
2021/12/04 08:35:28;;;;;;;2.83;2.20;;;3.90;99.90;;;;;;5073887;28;20028;-81
2021/12/04 08:37:58;;;;;;;3.50;2.47;;;3.90;99.90;;;;;;5089327;28;20094;-81
2021/12/04 08:40:25;;;;;;;3.53;2.70;;;4.00;99.90;;;;;;5089398;28;20484;-81
2021/12/04 08:42:51;;;;;;;3.28;2.90;;;4.00;99.90;;;;;;5089036;28;20541;-81
2021/12/04 08:45:18;;;;;;;4.32;2.72;;;4.00;99.90;;;;;;5073676;28;20028;-81
2021/12/04 08:47:45;;;;;;;3.88;3.25;;;4.00;99.90;;;;;;5089154;28;20025;-81
2021/12/04 08:50:33;;;;;;;4.68;2.80;;;4.10;99.90;;;;;;5089164;28;20021;-81
2021/12/04 08:53:01;;;;;;;2.20;1.98;;;4.10;99.90;;;;;;5073001;28;20036;-81
2021/12/04 08:55:30;;;;;;;3.78;1.77;;;4.10;99.90;;;;;;5089113;28;20479;-81
2021/12/04 08:57:56;;;;;;;2.63;2.10;;;4.20;99.90;;;;;;5073558;28;20025;-81
2021/12/04 09:00:33;;;;;;;3.75;2.17;;;4.20;99.90;;;;;;5089024;28;20082;-80
2021/12/04 09:02:59;;;;;;;2.30;1.80;;;4.20;99.90;;;;;;5089026;28;20058;-81
2021/12/04 09:05:25;;;;;;;3.65;1.90;;;4.30;99.90;;;;;;5089504;28;20113;-81
2021/12/04 09:07:51;;;;;;;3.92;2.30;;;4.30;99.90;;;;;;5089131;28;20025;-81
2021/12/04 09:10:18;;;;;;;1.65;1.55;;;4.30;99.90;;;;;;5088955;28;20047;-81
2021/12/04 09:12:45;;;;;;;2.22;1.63;;;4.30;99.90;;;;;;5088829;28;20112;-81
2021/12/04 09:15:14;;;;;;;2.10;1.60;;;4.40;99.90;;;;;;5088789;28;20021;-81
2021/12/04 09:17:40;;;;;;;2.00;1.55;;;4.40;99.90;;;;;;5088801;28;20020;-81
2021/12/04 09:20:08;;;;;;;3.35;1.92;;;4.50;99.90;;;;;;5073382;28;20039;-81
2021/12/04 09:22:36;;;;;;;2.25;2.00;;;4.50;99.90;;;;;;5088655;28;20039;-81
2021/12/04 09:25:11;;;;;;;4.47;1.92;;;4.50;99.90;;;;;;5089057;28;20111;-81
2021/12/04 09:31:08;;;;;;;2.15;1.95;;;4.60;99.90;;;;;;5073495;28;20031;-81
2021/12/04 10:35:18;;;;;;;4.30;1.58;;;5.80;99.90;;;;;;5034314;28;20096;-80
2021/12/04 10:37:45;;;;;;;3.45;1.58;;;5.80;99.90;;;;;;5034029;28;20111;-81
2021/12/04 10:40:11;;;;;;;2.53;1.50;;;6.00;99.90;;;;;;5034210;28;20034;-81
2021/12/04 10:42:57;;;;;;;2.92;1.52;;;6.00;99.90;;;;;;5033994;28;20060;-81
2021/12/04 10:45:36;;;;;;;3.22;2.30;;;6.10;99.90;;;;;;5034639;28;20405;-82
2021/12/04 10:48:07;;;;;;;2.15;1.52;;;6.20;99.90;;;;;;5033779;28;20079;-82
2021/12/04 10:50:45;;;;;;;2.42;1.30;;;6.20;99.90;;;;;;5033265;28;20505;-82
2021/12/04 10:53:21;;;;;;;2.20;1.80;;;6.30;99.90;;;;;;5034043;28;20029;-81
2021/12/04 11:37:15;;;;;;;1.70;1.48;;;6.70;99.90;;;;;;5095860;28;20433;-81
2021/12/04 11:39:57;;;;;;;1.63;1.20;;;6.60;99.90;;;;;;5055303;28;20048;-81
2021/12/04 11:44:56;;;;;;;2.80;1.40;;;6.70;99.90;;;;;;5054851;28;20520;-82
2021/12/04 11:47:22;;;;;;;2.00;1.35;;;6.70;99.90;;;;;;5054975;28;20028;-81
2021/12/04 11:49:48;;;;;;;2.63;1.55;;;6.80;99.90;;;;;;5070382;28;20025;-81
2021/12/04 11:52:19;;;;;;;2.67;1.30;;;6.80;99.90;;;;;;5054670;28;20481;-79
2021/12/04 11:54:58;;;;;;;6.82;2.40;;;6.80;99.90;;;;;;5054556;28;20024;-80
2021/12/04 11:57:33;;;;;;;5.43;2.42;;;6.90;99.90;;;;;;5070206;28;20029;-81
2021/12/04 12:00:35;;;;;;;5.22;1.38;;;6.90;99.90;;;;;;5069741;28;20025;-80
2021/12/04 12:03:15;;;;;;;6.43;4.03;;;6.90;99.90;;;;;;5068961;28;20025;-80
2021/12/04 12:05:43;;;;;;;2.65;1.48;;;6.90;99.90;;;;;;5069888;28;20029;-80
2021/12/04 12:08:25;;;;;;;2.95;1.50;;;7.00;99.90;;;;;;5069841;28;20067;-80
2021/12/04 12:10:58;;;;;;;3.38;1.98;;;7.00;99.90;;;;;;5069759;28;20120;-80
2021/12/04 12:13:38;;;;;;;9.95;5.22;;;7.10;99.90;;;;;;5069709;28;20029;-80
2021/12/04 12:16:17;;;;;;;1.60;1.23;;;7.00;99.90;;;;;;5054367;28;20021;-80
2021/12/04 12:18:55;;;;;;;4.72;2.40;;;6.80;99.90;;;;;;5069707;28;20493;-80
2021/12/04 12:21:27;;;;;;;5.47;2.08;;;7.00;99.90;;;;;;5054207;28;20415;-80
2021/12/04 12:27:13;;;;;;;3.95;1.77;;;7.10;99.90;;;;;;5054518;28;20028;-79
2021/12/04 12:33:22;;;;;;;1.55;1.23;;;7.10;99.90;;;;;;5054622;28;20537;-80
2021/12/04 12:36:03;;;;;;;4.03;1.83;;;7.10;99.90;;;;;;5054221;28;20546;-80
2021/12/04 12:38:53;;;;;;;3.08;1.42;;;7.20;99.90;;;;;;5082885;28;20040;-80
2021/12/04 12:41:30;;;;;;;2.17;1.23;;;7.20;99.90;;;;;;5075824;28;20022;-80
2021/12/04 12:44:17;;;;;;;1.42;1.27;;;7.20;99.90;;;;;;5075877;28;20024;-80
2021/12/04 12:46:52;;;;;;;1.35;1.00;;;7.20;99.90;;;;;;5075613;28;20021;-80
2021/12/04 12:49:37;;;;;;;2.45;1.52;;;7.10;99.90;;;;;;5093839;28;20020;-79
2021/12/04 12:52:06;;;;;;;3.30;1.48;;;7.20;99.90;;;;;;5075747;28;20024;-79
2021/12/04 12:54:54;;;;;;;3.33;1.60;;;7.10;99.90;;;;;;5075574;28;20032;-79
2021/12/04 12:57:27;;;;;;;1.77;1.30;;;7.10;99.90;;;;;;5075643;28;20028;-79
2021/12/04 13:11:44;;;;;;;2.22;1.48;;;7.10;99.90;;;;;;5094098;28;20074;-79
2021/12/04 13:14:27;;;;;;;3.03;1.45;;;7.10;99.90;;;;;;5075052;28;20078;-78
2021/12/04 13:17:16;;;;;;;2.67;1.48;;;7.10;99.90;;;;;;5075361;28;20024;-78
2021/12/04 13:19:48;;;;;;;1.95;1.55;;;7.20;99.90;;;;;;5075825;28;20028;-79
2021/12/04 13:22:30;;;;;;;2.90;1.40;;;7.20;99.90;;;;;;5075283;28;20024;-78
2021/12/04 13:25:06;;;;;;;3.38;1.45;;;7.30;99.90;;;;;;5093345;28;20033;-79
2021/12/04 13:30:09;;;;;;;2.40;1.80;;;7.20;99.90;;;;;;5093519;28;20110;-78
2021/12/04 13:32:41;;;;;;;2.53;1.52;;;7.10;99.90;;;;;;5075129;28;20024;-78
2021/12/04 13:35:21;;;;;;;2.28;1.67;;;7.10;99.90;;;;;;5075015;28;20016;-78
2021/12/04 13:37:48;;;;;;;4.25;1.50;;;7.20;99.90;;;;;;5074962;28;20050;-78
2021/12/04 13:40:17;;;;;;;6.00;1.50;;;7.20;99.90;;;;;;5075059;28;20091;-78
2021/12/04 13:42:44;;;;;;;6.88;4.82;;;7.20;99.90;;;;;;5093239;28;20024;-78
2021/12/04 13:45:14;;;;;;;15.63;8.20;;;7.10;99.90;;;;;;5075155;28;20020;-78
2021/12/04 13:47:41;;;;;;;3.10;1.90;;;7.00;99.90;;;;;;5074996;28;20028;-78
2021/12/04 13:52:55;;;;;;;12.20;5.70;;;6.90;99.90;;;;;;5093504;28;20123;-78
2021/12/04 13:55:23;;;;;;;2.90;2.25;;;6.90;99.90;;;;;;5093109;28;20016;-78
2021/12/04 13:57:50;;;;;;;5.70;2.95;;;6.90;99.90;;;;;;5074911;28;20036;-78
2021/12/04 14:00:17;;;;;;;4.88;2.30;;;7.00;99.90;;;;;;5093088;28;20432;-79
2021/12/04 14:02:43;;;;;;;4.63;1.98;;;7.10;99.90;;;;;;5074840;28;20032;-78
2021/12/04 14:05:16;;;;;;;3.55;2.20;;;7.10;99.90;;;;;;5074968;28;20480;-79
2021/12/04 14:07:52;;;;;;;4.82;1.98;;;7.00;99.90;;;;;;5074760;28;20111;-78
2021/12/04 14:10:20;;;;;;;3.33;2.28;;;6.90;99.90;;;;;;5074848;28;20377;-79
2021/12/04 14:12:47;;;;;;;4.68;2.42;;;6.80;99.90;;;;;;5074761;28;20020;-78
2021/12/04 14:15:16;;;;;;;4.45;2.20;;;6.90;99.90;;;;;;5092884;28;20383;-79
2021/12/04 14:17:42;;;;;;;2.95;2.25;;;7.00;99.90;;;;;;5074588;28;20115;-79
2021/12/04 14:20:14;;;;;;;2.97;1.67;;;7.00;99.90;;;;;;5092784;28;20024;-79
2021/12/04 14:22:48;;;;;;;4.90;2.00;;;6.80;99.90;;;;;;5093112;28;20020;-79
2021/12/04 14:25:15;;;;;;;3.30;2.00;;;7.00;99.90;;;;;;5074816;28;20020;-79
2021/12/04 14:27:41;;;;;;;5.60;1.92;;;7.00;99.90;;;;;;5078266;28;20028;-79
2021/12/04 14:30:21;;;;;;;2.63;2.00;;;7.10;99.90;;;;;;5078368;28;20020;-78
2021/12/04 14:32:55;;;;;;;2.72;1.88;;;7.00;99.90;;;;;;5078292;28;20047;-79
2021/12/04 14:35:25;;;;;;;2.78;2.10;;;7.00;99.90;;;;;;5096722;28;20036;-78
2021/12/04 14:37:54;;;;;;;2.92;2.03;;;6.90;99.90;;;;;;5096637;28;20036;-78
2021/12/04 14:40:25;;;;;;;4.20;2.38;;;7.00;99.90;;;;;;5078171;28;20116;-78
2021/12/04 14:42:53;;;;;;;3.30;2.53;;;7.10;99.90;;;;;;5096337;28;20107;-78
2021/12/04 14:45:27;;;;;;;4.28;2.20;;;7.00;99.90;;;;;;5096243;28;20020;-78
2021/12/04 14:48:03;;;;;;;2.85;2.15;;;7.10;99.90;;;;;;5077978;28;20026;-78
2021/12/04 14:50:30;;;;;;;3.92;2.55;;;7.10;99.90;;;;;;5078022;28;20032;-78
2021/12/04 14:53:00;;;;;;;4.20;1.83;;;7.10;99.90;;;;;;5077870;28;20028;-78
2021/12/04 14:55:29;;;;;;;3.03;2.30;;;7.10;99.90;;;;;;5077891;28;20046;-79
2021/12/04 14:57:56;;;;;;;4.43;2.47;;;7.10;99.90;;;;;;5077808;28;20031;-79
2021/12/04 15:00:26;;;;;;;3.42;2.42;;;7.00;99.90;;;;;;5096217;28;20100;-79
2021/12/04 15:03:21;;;;;;;6.60;3.05;;;7.00;99.90;;;;;;5095965;28;20028;-80
2021/12/04 15:05:57;;;;;;;5.60;1.90;;;7.00;99.90;;;;;;5082568;28;20487;-79
2021/12/04 15:08:26;;;;;;;4.00;2.60;;;7.10;99.90;;;;;;5096369;28;20038;-80
2021/12/04 15:11:05;;;;;;;5.07;3.00;;;7.10;99.90;;;;;;5077707;28;20024;-78
2021/12/04 15:13:35;;;;;;;2.17;1.55;;;7.10;99.90;;;;;;5095781;28;20502;-79
2021/12/04 15:16:05;;;;;;;2.33;1.55;;;7.10;99.90;;;;;;5095926;28;20047;-79
2021/12/04 15:18:38;;;;;;;9.15;3.55;;;7.20;99.90;;;;;;5077503;28;20024;-79
2021/12/04 15:21:07;;;;;;;3.97;2.45;;;7.10;99.90;;;;;;5077334;28;20046;-79
2021/12/04 15:23:36;;;;;;;2.75;1.80;;;7.10;99.90;;;;;;5077385;28;20027;-80
2021/12/04 15:26:19;;;;;;;3.63;2.85;;;7.10;99.90;;;;;;5095378;28;20019;-79
2021/12/04 15:28:49;;;;;;;2.88;1.90;;;7.20;99.90;;;;;;5077410;28;20036;-79
2021/12/04 15:31:17;;;;;;;2.85;1.35;;;7.20;99.90;;;;;;5077291;28;20032;-79
2021/12/04 15:33:46;;;;;;;1.65;1.42;;;7.20;99.90;;;;;;5077259;28;20482;-79
2021/12/04 15:36:30;;;;;;;1.15;0.98;;;7.20;99.90;;;;;;5095725;28;20499;-79
2021/12/04 15:38:58;;;;;;;4.00;1.40;;;7.20;99.90;;;;;;5073669;28;20049;-79
2021/12/04 15:52:45;;;;;;;2.67;1.48;;;7.20;99.90;;;;;;5075489;28;20031;-79
2021/12/04 15:54:39;;;;;;;1.83;1.10;;;7.10;99.90;;;;;;5074744;28;20025;-79
2021/12/04 15:57:14;;;;;;;2.80;1.05;;;7.10;99.90;;;;;;5090357;28;20451;-79
2021/12/04 15:59:45;;;;;;;1.30;0.73;;;7.10;99.90;;;;;;5074760;28;20544;-79
2021/12/04 16:02:14;;;;;;;2.15;0.68;;;7.10;99.90;;;;;;5090379;28;20028;-78
2021/12/04 16:04:41;;;;;;;1.20;0.57;;;7.20;99.90;;;;;;5090253;28;20024;-78
2021/12/04 16:07:07;;;;;;;1.60;1.00;;;7.20;99.90;;;;;;5074807;28;20087;-78
2021/12/04 16:09:36;;;;;;;1.40;0.90;;;7.20;99.90;;;;;;5090173;28;20032;-79
2021/12/04 16:12:08;;;;;;;1.25;0.90;;;7.10;99.90;;;;;;5074895;28;20028;-78
2021/12/04 16:14:43;;;;;;;3.35;1.38;;;7.20;99.90;;;;;;5090209;28;20503;-78
2021/12/04 16:17:10;;;;;;;1.15;0.75;;;7.10;99.90;;;;;;5090020;28;20056;-78
2021/12/04 16:19:38;;;;;;;2.90;1.80;;;7.00;99.90;;;;;;5090076;28;20044;-78
2021/12/04 16:22:08;;;;;;;1.83;1.35;;;7.00;99.90;;;;;;5090434;28;20020;-79
2021/12/04 16:24:42;;;;;;;2.88;1.75;;;7.00;99.90;;;;;;5074326;28;20503;-79
2021/12/04 16:29:48;;;;;;;4.72;2.95;;;6.90;99.90;;;;;;5074149;28;20025;-79
2021/12/04 16:39:51;;;;;;;5.85;4.18;;;6.60;99.90;;;;;;5094331;28;20028;-80